TimeCDT,TemperatureF,Dew PointF,Humidity,Sea Level PressureIn,VisibilityMPH,Wind Direction,Wind SpeedMPH,Gust SpeedMPH,PrecipitationIn,Events,Conditions,WindDirDegrees,DateUTC
12:15 AM,51.3,24.1,35,30.34,10.0,East,10.4,-,N/A,,Overcast,80,2012-10-27 05:15:00
1:35 AM,50.0,23.0,35,30.33,10.0,East,10.4,-,N/A,,Overcast,80,2012-10-27 06:35:00
1:55 AM,49.6,23.0,35,30.33,10.0,East,11.5,-,N/A,,Overcast,80,2012-10-27 06:55:00
2:15 AM,49.5,23.2,36,30.33,10.0,East,9.2,-,N/A,,Overcast,90,2012-10-27 07:15:00
2:35 AM,49.1,23.2,36,30.33,10.0,East,9.2,-,N/A,,Overcast,90,2012-10-27 07:35:00
2:55 AM,48.7,22.5,36,30.33,10.0,ENE,8.1,-,N/A,,Overcast,70,2012-10-27 07:55:00
3:35 AM,48.2,22.1,36,30.32,10.0,East,10.4,-,N/A,,Overcast,80,2012-10-27 08:35:00
3:55 AM,46.9,22.8,39,30.31,10.0,East,8.1,-,N/A,,Overcast,90,2012-10-27 08:55:00
4:15 AM,45.9,22.1,39,30.31,10.0,East,6.9,-,N/A,,Overcast,90,2012-10-27 09:15:00
4:35 AM,44.1,23.0,43,30.31,10.0,East,5.8,-,N/A,,Mostly Cloudy,90,2012-10-27 09:35:00
4:55 AM,42.1,23.9,49,30.31,10.0,East,5.8,-,N/A,,Scattered Clouds,90,2012-10-27 09:55:00
5:15 AM,41.0,24.3,51,30.31,10.0,East,5.8,-,N/A,,Scattered Clouds,90,2012-10-27 10:15:00
5:35 AM,41.0,23.7,50,30.31,10.0,ENE,5.8,-,N/A,,Clear,60,2012-10-27 10:35:00
5:55 AM,41.7,23.9,49,30.31,10.0,ENE,6.9,-,N/A,,Mostly Cloudy,60,2012-10-27 10:55:00
6:15 AM,41.2,25.5,54,30.31,10.0,ENE,4.6,-,N/A,,Overcast,60,2012-10-27 11:15:00
6:55 AM,38.7,25.5,59,30.32,10.0,ENE,4.6,-,N/A,,Clear,70,2012-10-27 11:55:00
7:15 AM,38.3,25.5,60,30.31,10.0,East,3.5,-,N/A,,Mostly Cloudy,90,2012-10-27 12:15:00
7:35 AM,39.4,25.3,57,30.31,10.0,East,4.6,-,N/A,,Overcast,90,2012-10-27 12:35:00
7:55 AM,39.2,24.8,56,30.32,10.0,East,3.5,-,N/A,,Mostly Cloudy,90,2012-10-27 12:55:00
8:15 AM,37.8,25.7,62,30.32,10.0,East,4.6,-,N/A,,Scattered Clouds,80,2012-10-27 13:15:00
8:35 AM,37.4,25.5,62,30.32,10.0,East,4.6,-,N/A,,Clear,90,2012-10-27 13:35:00
9:15 AM,40.8,25.0,53,30.33,10.0,ENE,4.6,-,N/A,,Mostly Cloudy,60,2012-10-27 14:15:00
9:35 AM,43.0,23.5,46,30.33,10.0,East,10.4,-,N/A,,Overcast,80,2012-10-27 14:35:00
9:55 AM,44.1,23.5,44,30.32,10.0,East,10.4,-,N/A,,Overcast,90,2012-10-27 14:55:00
10:15 AM,45.3,23.4,42,30.33,10.0,East,9.2,-,N/A,,Overcast,90,2012-10-27 15:15:00
10:35 AM,46.0,22.8,40,30.32,10.0,East,9.2,-,N/A,,Overcast,90,2012-10-27 15:35:00
10:55 AM,46.4,22.8,39,30.32,10.0,East,10.4,-,N/A,,Overcast,100,2012-10-27 15:55:00
11:15 AM,46.9,23.0,39,30.32,10.0,East,11.5,-,N/A,,Overcast,80,2012-10-27 16:15:00
11:35 AM,48.0,22.3,36,30.31,10.0,East,11.5,-,N/A,,Overcast,80,2012-10-27 16:35:00
11:55 AM,48.6,21.7,35,30.31,10.0,East,10.4,-,N/A,,Overcast,100,2012-10-27 16:55:00
12:15 PM,49.5,20.7,32,30.30,10.0,ESE,8.1,-,N/A,,Overcast,120,2012-10-27 17:15:00
12:35 PM,50.2,18.1,28,30.29,10.0,ESE,9.2,-,N/A,,Overcast,110,2012-10-27 17:35:00
12:55 PM,51.1,18.9,28,30.28,10.0,ESE,9.2,-,N/A,,Overcast,110,2012-10-27 17:55:00
1:15 PM,52.5,18.0,26,30.26,10.0,East,4.6,-,N/A,,Overcast,80,2012-10-27 18:15:00
1:35 PM,52.3,19.0,27,30.25,10.0,SSE,4.6,-,N/A,,Overcast,160,2012-10-27 18:35:00
1:55 PM,53.2,20.7,28,30.24,10.0,East,9.2,-,N/A,,Overcast,100,2012-10-27 18:55:00
2:15 PM,54.9,20.7,26,30.22,10.0,East,8.1,-,N/A,,Mostly Cloudy,100,2012-10-27 19:15:00
2:35 PM,56.1,21.2,26,30.20,10.0,SE,8.1,-,N/A,,Mostly Cloudy,130,2012-10-27 19:35:00
2:55 PM,56.1,20.8,25,30.19,10.0,ESE,8.1,-,N/A,,Scattered Clouds,110,2012-10-27 19:55:00
3:15 PM,56.5,21.9,26,30.17,10.0,SE,10.4,-,N/A,,Clear,140,2012-10-27 20:15:00
3:35 PM,57.2,21.9,26,30.16,10.0,East,9.2,-,N/A,,Clear,90,2012-10-27 20:35:00
4:15 PM,58.3,20.8,23,30.13,10.0,ESE,6.9,-,N/A,,Clear,110,2012-10-27 21:15:00
4:35 PM,58.8,20.1,22,30.13,10.0,ESE,6.9,-,N/A,,Clear,120,2012-10-27 21:35:00
4:55 PM,58.5,20.1,23,30.12,10.0,ESE,10.4,-,N/A,,Clear,110,2012-10-27 21:55:00
5:15 PM,58.8,19.8,22,30.12,10.0,ESE,6.9,-,N/A,,Clear,110,2012-10-27 22:15:00
5:35 PM,58.3,19.8,22,30.12,10.0,East,8.1,-,N/A,,Clear,100,2012-10-27 22:35:00
5:55 PM,58.1,20.3,23,30.11,10.0,ESE,8.1,-,N/A,,Clear,120,2012-10-27 22:55:00
6:15 PM,57.6,20.8,24,30.12,10.0,East,9.2,-,N/A,,Clear,100,2012-10-27 23:15:00
6:35 PM,56.7,21.4,25,30.10,10.0,ESE,9.2,-,N/A,,Clear,120,2012-10-27 23:35:00
6:55 PM,55.4,23.2,29,30.11,10.0,East,5.8,-,N/A,,Clear,100,2012-10-27 23:55:00
7:15 PM,52.9,23.5,32,30.12,10.0,ENE,6.9,-,N/A,,Clear,70,2012-10-28 00:15:00
7:35 PM,50.4,23.0,34,30.13,10.0,ENE,8.1,-,N/A,,Clear,70,2012-10-28 00:35:00
7:55 PM,49.5,23.4,36,30.13,10.0,ENE,8.1,-,N/A,,Clear,60,2012-10-28 00:55:00
8:35 PM,46.9,23.2,39,30.15,10.0,East,6.9,-,N/A,,Clear,80,2012-10-28 01:35:00
8:55 PM,46.0,23.9,42,30.15,10.0,East,5.8,-,N/A,,Clear,80,2012-10-28 01:55:00
9:15 PM,45.5,23.9,43,30.16,10.0,ENE,6.9,-,N/A,,Clear,70,2012-10-28 02:15:00
9:35 PM,44.2,24.4,46,30.16,10.0,ENE,6.9,-,N/A,,Clear,70,2012-10-28 02:35:00
9:55 PM,44.1,24.8,47,30.16,10.0,ENE,6.9,-,N/A,,Clear,60,2012-10-28 02:55:00
10:15 PM,43.7,24.1,46,30.16,10.0,East,6.9,-,N/A,,Clear,80,2012-10-28 03:15:00
10:35 PM,42.1,24.6,50,30.17,10.0,ENE,6.9,-,N/A,,Clear,70,2012-10-28 03:35:00
11:15 PM,41.5,24.6,51,30.19,10.0,ENE,6.9,-,N/A,,Clear,60,2012-10-28 04:15:00
11:35 PM,41.7,24.3,50,30.19,10.0,ENE,5.8,-,N/A,,Clear,70,2012-10-28 04:35:00
11:55 PM,41.0,24.4,52,30.19,10.0,ENE,6.9,-,N/A,,Clear,60,2012-10-28 04:55:00